Time;durP1;ratioP1;P1;durP2;ratioP2;P2;SDS_P1;SDS_P2;PMS_P1;PMS_P2;Temp;Humidity;BMP_temperature;BMP_pressure;BME280_temperature;BME280_humidity;BME280_pressure;Samples;Min_cycle;Max_cycle;Signal;HPM_P1;HPM_P2
2023/04/28 00:09:55;;;;;;;;;;;;;;;7.95;75.08;101884.16;20808804;28;19945;-56
2023/04/28 00:20:17;;;;;;;;;;;;;;;7.85;77.35;101879.91;20803594;28;19960;-56
2023/04/28 00:30:38;;;;;;;;;;;;;;;7.78;75.20;101866.16;20806290;28;19929;-56
2023/04/28 00:41:00;;;;;;;;;;;;;;;7.69;76.28;101852.47;20803830;28;20003;-55
2023/04/28 00:51:22;;;;;;;;;;;;;;;7.68;76.48;101838.72;20798215;28;19932;-56
2023/04/28 01:01:45;;;;;;;;;;;;;;;7.63;76.79;101821.56;20800619;28;20316;-56
2023/04/28 01:12:07;;;;;;;;;;;;;;;7.57;76.65;101816.41;20793323;28;19975;-55
2023/04/28 01:22:28;;;;;;;;;;;;;;;7.53;75.90;101804.41;20799909;28;20097;-56
2023/04/28 01:32:50;;;;;;;;;;;;;;;7.50;76.32;101794.13;20792511;28;20007;-55
2023/04/28 01:43:11;;;;;;;;;;;;;;;7.41;76.43;101783.84;20799044;28;19925;-55
2023/04/28 01:53:32;;;;;;;;;;;;;;;7.33;76.33;101770.09;20794066;28;19932;-56
2023/04/28 02:03:54;;;;;;;;;;;;;;;7.21;75.84;101754.69;20797392;28;19987;-56
2023/04/28 02:14:16;;;;;;;;;;;;;;;7.22;76.35;101746.09;20804646;28;20242;-54
2023/04/28 02:24:38;;;;;;;;;;;;;;;7.13;77.39;101726.41;20798310;28;19925;-56
2023/04/28 02:34:59;;;;;;;;;;;;;;;7.05;76.19;101713.53;20794303;28;20022;-55
2023/04/28 02:45:21;;;;;;;;;;;;;;;7.01;76.40;101692.97;20779719;28;19962;-56
2023/04/28 02:55:42;;;;;;;;;;;;;;;6.93;76.62;101676.69;20798095;28;19978;-55
2023/04/28 03:06:04;;;;;;;;;;;;;;;6.89;76.99;101665.53;20809777;28;19971;-56
2023/04/28 03:16:25;;;;;;;;;;;;;;;6.90;76.58;101625.25;20806840;28;19929;-56
2023/04/28 03:26:46;;;;;;;;;;;;;;;6.95;77.31;101634.69;20806951;28;20343;-55
2023/04/28 03:37:08;;;;;;;;;;;;;;;7.01;76.81;101613.22;20808129;28;19995;-55
2023/04/28 03:47:29;;;;;;;;;;;;;;;6.98;75.63;101592.63;20806441;28;19929;-56
2023/04/28 03:57:51;;;;;;;;;;;;;;;6.88;75.87;101565.25;20808233;28;19929;-56
2023/04/28 04:08:12;;;;;;;;;;;;;;;6.85;77.19;101552.38;20804406;28;19925;-56
2023/04/28 04:18:33;;;;;;;;;;;;;;;6.86;76.02;101543.81;20806081;28;19925;-56
2023/04/28 04:28:55;;;;;;;;;;;;;;;6.87;76.02;101538.66;20785991;28;19960;-54
2023/04/28 04:39:16;;;;;;;;;;;;;;;6.90;75.40;101536.06;20798043;28;20011;-55
2023/04/28 04:49:38;;;;;;;;;;;;;;;6.87;74.74;101520.66;20800061;28;19933;-56
2023/04/28 04:59:59;;;;;;;;;;;;;;;6.98;75.62;101520.59;20799824;28;20012;-56
2023/04/28 05:10:20;;;;;;;;;;;;;;;7.11;75.64;101517.09;20799762;28;19987;-55
2023/04/28 05:20:42;;;;;;;;;;;;;;;7.25;74.01;101502.47;20785910;28;19925;-56
2023/04/28 05:31:03;;;;;;;;;;;;;;;7.47;75.07;101496.28;20799584;28;19926;-55
2023/04/28 05:41:25;;;;;;;;;;;;;;;7.65;74.79;101506.50;20802078;28;19932;-57
2023/04/28 05:51:46;;;;;;;;;;;;;;;7.78;73.87;101507.25;20785554;28;20443;-55
2023/04/28 06:02:07;;;;;;;;;;;;;;;7.90;73.13;101508.00;20793190;28;19996;-56
2023/04/28 06:12:29;;;;;;;;;;;;;;;8.01;72.49;101474.41;20807177;28;20008;-56
2023/04/28 06:22:50;;;;;;;;;;;;;;;8.10;73.05;101482.06;20790146;28;20373;-55
2023/04/28 06:33:12;;;;;;;;;;;;;;;8.22;72.49;101466.50;20808278;28;19945;-56
2023/04/28 06:43:33;;;;;;;;;;;;;;;8.36;73.17;101451.75;20804032;28;20794;-55
2023/04/28 06:53:55;;;;;;;;;;;;;;;8.49;73.17;101458.47;20818316;28;19929;-56
2023/04/28 07:04:16;;;;;;;;;;;;;;;8.75;73.01;101445.28;20811391;28;20396;-56
2023/04/28 07:14:38;;;;;;;;;;;;;;;9.01;71.84;101433.72;20800855;28;19929;-56
2023/04/28 07:25:00;;;;;;;;;;;;;;;9.28;71.45;101427.31;20795120;28;20020;-57
2023/04/28 07:35:21;;;;;;;;;;;;;;;9.58;70.67;101415.63;20810664;28;19933;-56
2023/04/28 07:45:44;;;;;;;;;;;;;;;9.82;70.43;101422.97;20806555;28;19925;-56
2023/04/28 07:56:06;;;;;;;;;;;;;;;10.02;69.71;101413.13;20802544;28;19995;-56
2023/04/28 08:06:27;;;;;;;;;;;;;;;10.30;68.98;101408.31;20804438;28;19995;-57
2023/04/28 08:16:49;;;;;;;;;;;;;;;10.62;67.25;101390.41;20803434;28;19925;-56
2023/04/28 08:27:11;;;;;;;;;;;;;;;10.84;67.19;101397.66;20782332;28;19930;-56
2023/04/28 08:37:33;;;;;;;;;;;;;;;11.07;64.70;101386.81;20801467;28;20165;-56
2023/04/28 08:47:55;;;;;;;;;;;;;;;11.34;66.03;101378.38;20787638;28;19933;-56
2023/04/28 08:58:18;;;;;;;;;;;;;;;11.47;67.30;101384.97;20805905;28;19987;-57
2023/04/28 09:08:39;;;;;;;;;;;;;;;11.62;66.44;101381.13;20799180;28;20331;-57
2023/04/28 09:19:01;;;;;;;;;;;;;;;11.79;66.43;101366.03;20812824;28;19929;-57
2023/04/28 09:29:22;;;;;;;;;;;;;;;12.12;66.94;101354.75;20796778;28;20532;-55
2023/04/28 09:39:48;;;;;;;;;;;;;;;12.52;64.69;101344.94;20778164;28;19929;-57
2023/04/28 09:50:13;;;;;;;;;;;;;;;12.80;65.96;101332.78;20794699;28;19931;-56
2023/04/28 10:00:36;;;;;;;;;;;;;;;12.94;65.70;101315.06;20797306;28;19955;-56
2023/04/28 10:10:58;;;;;;;;;;;;;;;12.91;65.77;101302.13;20785601;28;20423;-58
2023/04/28 10:21:20;;;;;;;;;;;;;;;12.93;66.61;101297.75;20794104;28;19929;-56
2023/04/28 10:32:02;;;;;;;;;;;;;;;12.72;66.82;101301.03;20794286;28;19959;-55
2023/04/28 10:42:42;;;;;;;;;;;;;;;12.69;68.47;101284.72;20804927;28;19925;-55
2023/04/28 10:53:04;;;;;;;;;;;;;;;12.76;67.93;101273.22;20791589;28;20341;-56
2023/04/28 11:03:43;;;;;;;;;;;;;;;12.70;68.45;101273.41;20781132;28;20307;-55
2023/04/28 11:14:17;;;;;;;;;;;;;;;12.77;68.34;101256.72;20795701;28;20024;-55
2023/04/28 11:24:39;;;;;;;;;;;;;;;12.99;68.04;101232.63;20800407;28;19929;-55
2023/04/28 11:35:03;;;;;;;;;;;;;;;13.06;67.82;101236.72;20809151;28;20423;-55
2023/04/28 11:45:24;;;;;;;;;;;;;;;13.19;67.65;101207.72;20798949;28;20014;-55
2023/04/28 11:55:46;;;;;;;;;;;;;;;13.53;68.18;101213.44;20805879;28;19975;-57
2023/04/28 12:06:07;;;;;;;;;;;;;;;13.70;67.34;101209.31;20793719;28;19969;-57
2023/04/28 12:16:42;;;;;;;;;;;;;;;13.76;68.05;101205.66;20817791;28;19933;-55
2023/04/28 12:27:14;;;;;;;;;;;;;;;13.86;67.78;101196.59;20800897;28;19948;-57
2023/04/28 12:37:37;;;;;;;;;;;;;;;14.02;67.42;101192.50;20803009;28;19925;-57
2023/04/28 12:47:59;;;;;;;;;;;;;;;14.24;66.43;101182.09;20803343;28;19983;-57
2023/04/28 12:58:20;;;;;;;;;;;;;;;14.43;66.82;101170.94;20785609;28;20522;-57
2023/04/28 13:08:43;;;;;;;;;;;;;;;14.54;68.39;101154.91;20799374;28;19933;-57
2023/04/28 13:19:08;;;;;;;;;;;;;;;14.55;67.81;101149.63;20796956;28;19979;-56
2023/04/28 13:29:29;;;;;;;;;;;;;;;14.51;68.77;101148.03;20796679;28;20377;-57
2023/04/28 13:39:51;;;;;;;;;;;;;;;14.63;68.32;101113.66;20789755;28;20384;-56
2023/04/28 13:50:13;;;;;;;;;;;;;;;14.81;68.61;101086.00;20780138;28;19933;-57
2023/04/28 14:00:36;;;;;;;;;;;;;;;14.97;67.95;101074.84;20786823;28;19925;-57
2023/04/28 14:10:57;;;;;;;;;;;;;;;14.99;67.39;101070.41;20797156;28;19925;-55
2023/04/28 14:21:19;;;;;;;;;;;;;;;15.00;66.89;101056.44;20791756;28;19929;-54
2023/04/28 14:31:40;;;;;;;;;;;;;;;14.86;68.45;101063.19;20797085;28;20272;-57
2023/04/28 14:42:02;;;;;;;;;;;;;;;14.60;72.95;101072.13;20787117;28;19936;-57
2023/04/28 14:52:26;;;;;;;;;;;;;;;14.19;78.26;101074.72;20789741;28;19925;-56
2023/04/28 15:02:47;;;;;;;;;;;;;;;13.92;80.31;101061.06;20797322;28;20355;-55
2023/04/28 15:13:09;;;;;;;;;;;;;;;13.90;86.66;101034.25;20805774;28;20480;-56
2023/04/28 15:23:31;;;;;;;;;;;;;;;13.92;82.52;101032.44;20800321;28;19929;-57
2023/04/28 15:33:52;;;;;;;;;;;;;;;13.86;84.15;101045.72;20803571;28;19940;-57
2023/04/28 15:44:14;;;;;;;;;;;;;;;13.78;84.96;101047.78;20793398;28;19925;-57
2023/04/28 15:54:35;;;;;;;;;;;;;;;13.72;85.64;101045.41;20795198;28;19925;-56
2023/04/28 16:05:01;;;;;;;;;;;;;;;13.60;79.95;101031.16;20788181;28;19929;-57
2023/04/28 16:15:22;;;;;;;;;;;;;;;13.62;81.62;101051.88;20788803;28;19929;-56
2023/04/28 16:25:44;;;;;;;;;;;;;;;13.59;82.55;101047.63;20803122;28;19937;-56
2023/04/28 16:36:05;;;;;;;;;;;;;;;13.62;83.58;101044.94;20782772;28;19929;-54
2023/04/28 16:46:27;;;;;;;;;;;;;;;13.60;84.62;101036.34;20778539;28;19971;-55
2023/04/28 16:56:48;;;;;;;;;;;;;;;13.57;85.71;101023.44;20786307;28;19925;-56
2023/04/28 17:07:10;;;;;;;;;;;;;;;13.42;86.67;101024.06;20782887;28;20735;-56
2023/04/28 17:17:32;;;;;;;;;;;;;;;13.30;88.35;101013.25;20796683;28;19948;-56
2023/04/28 17:27:53;;;;;;;;;;;;;;;13.25;87.25;101038.59;20799735;28;19925;-56
2023/04/28 17:38:15;;;;;;;;;;;;;;;13.10;89.88;101035.66;20790823;28;19972;-56
2023/04/28 17:48:37;;;;;;;;;;;;;;;13.01;91.72;101020.38;20867922;23;20014;-56
2023/04/28 17:58:59;;;;;;;;;;;;;;;12.91;92.36;101010.41;20940852;28;19924;-54
2023/04/28 18:09:20;;;;;;;;;;;;;;;12.82;92.11;100995.97;20944536;28;20364;-56
2023/04/28 18:19:41;;;;;;;;;;;;;;;12.78;92.46;101002.19;20956765;28;19936;-55
2023/04/28 18:30:03;;;;;;;;;;;;;;;12.69;92.79;100992.13;20978442;28;19970;-54
2023/04/28 18:40:25;;;;;;;;;;;;;;;12.64;92.26;100991.44;20961458;28;20315;-55
2023/04/28 18:50:47;;;;;;;;;;;;;;;12.61;93.06;100995.91;20946772;28;19924;-55
2023/04/28 19:01:16;;;;;;;;;;;;;;;12.54;92.37;100990.09;20957418;28;19924;-55
2023/04/28 19:11:37;;;;;;;;;;;;;;;12.47;92.82;100992.97;20954431;28;19978;-55
2023/04/28 19:22:00;;;;;;;;;;;;;;;12.43;92.18;101005.19;20964267;28;19955;-55
2023/04/28 19:32:21;;;;;;;;;;;;;;;12.44;94.20;101032.84;20950692;28;20023;-56
2023/04/28 19:42:42;;;;;;;;;;;;;;;12.38;93.67;101035.63;20952305;28;19970;-55
2023/04/28 19:53:04;;;;;;;;;;;;;;;12.23;93.29;101036.16;20960193;28;19998;-54
2023/04/28 20:03:25;;;;;;;;;;;;;;;12.11;93.29;101057.31;20952957;28;19967;-56
2023/04/28 20:13:47;;;;;;;;;;;;;;;12.04;94.89;101066.19;20974944;28;19928;-56
2023/04/28 20:24:08;;;;;;;;;;;;;;;11.98;95.14;101066.38;20949378;28;19924;-56
2023/04/28 20:34:30;;;;;;;;;;;;;;;11.93;93.73;101081.25;20950770;28;19935;-55
2023/04/28 20:44:52;;;;;;;;;;;;;;;11.86;94.00;101098.75;20933731;28;19983;-56
2023/04/28 20:55:13;;;;;;;;;;;;;;;11.77;93.91;101113.75;20954922;28;20324;-56
2023/04/28 21:05:34;;;;;;;;;;;;;;;11.62;94.17;101119.34;20944057;28;20007;-55
2023/04/28 21:15:56;;;;;;;;;;;;;;;11.56;93.14;101120.38;20954955;28;20375;-56
2023/04/28 21:26:22;;;;;;;;;;;;;;;11.50;92.23;101124.91;20950744;28;19928;-54
2023/04/28 21:36:44;;;;;;;;;;;;;;;11.42;92.60;101147.56;20974796;28;19928;-54
2023/04/28 21:47:05;;;;;;;;;;;;;;;11.41;94.39;101140.72;20942158;28;19959;-54
2023/04/28 21:57:27;;;;;;;;;;;;;;;11.41;93.32;101154.50;20952424;28;19928;-55
2023/04/28 22:07:48;;;;;;;;;;;;;;;11.38;94.32;101161.50;20948300;28;19925;-54
2023/04/28 22:18:10;;;;;;;;;;;;;;;11.38;93.19;101169.28;20935155;28;19982;-56
2023/04/28 22:28:31;;;;;;;;;;;;;;;11.39;92.82;101186.53;20952607;28;20408;-55
2023/04/28 22:38:53;;;;;;;;;;;;;;;11.39;93.20;101194.31;20954163;28;19978;-55
2023/04/28 22:49:15;;;;;;;;;;;;;;;11.39;96.05;101209.88;20957885;28;19932;-56
2023/04/28 22:59:36;;;;;;;;;;;;;;;11.39;93.25;101215.88;20939031;28;19974;-56
2023/04/28 23:09:58;;;;;;;;;;;;;;;11.33;93.57;101225.56;20950379;28;19924;-56
2023/04/28 23:20:19;;;;;;;;;;;;;;;11.32;92.63;101229.06;20974519;28;20380;-56
2023/04/28 23:30:41;;;;;;;;;;;;;;;11.33;93.77;101251.47;20958214;28;20372;-56
2023/04/28 23:41:05;;;;;;;;;;;;;;;11.29;92.93;101257.63;20967032;28;19928;-54
2023/04/28 23:51:26;;;;;;;;;;;;;;;11.29;92.62;101260.22;20955574;28;20525;-56
